createdAt,value
2022-10-02T00:02:36.122Z,14.70
2022-10-02T00:05:19.654Z,14.70
2022-10-02T00:07:56.043Z,14.70
2022-10-02T00:10:33.260Z,14.70
2022-10-02T00:13:08.172Z,14.70
2022-10-02T00:15:35.824Z,14.70
2022-10-02T00:18:05.250Z,14.60
2022-10-02T00:20:37.698Z,14.70
2022-10-02T00:23:08.381Z,14.60
2022-10-02T00:25:50.217Z,14.60
2022-10-02T00:28:20.197Z,14.60
2022-10-02T00:31:04.131Z,14.60
2022-10-02T00:33:39.257Z,14.50
2022-10-02T00:36:15.248Z,14.50
2022-10-02T00:38:47.990Z,14.50
2022-10-02T00:41:33.629Z,14.50
2022-10-02T00:44:21.303Z,14.50
2022-10-02T00:47:22.795Z,14.50
2022-10-02T00:50:01.860Z,14.50
2022-10-02T00:52:36.587Z,14.50
2022-10-02T00:55:09.365Z,14.50
2022-10-02T00:57:43.582Z,14.60
2022-10-02T01:00:12.578Z,14.50
2022-10-02T01:03:07.234Z,14.50
2022-10-02T01:05:34.319Z,14.50
2022-10-02T01:08:01.135Z,14.50
2022-10-02T01:10:28.488Z,14.50
2022-10-02T01:12:56.132Z,14.50
2022-10-02T01:15:31.207Z,14.50
2022-10-02T01:17:58.367Z,14.50
2022-10-02T01:20:37.986Z,14.50
2022-10-02T01:23:22.434Z,14.50
2022-10-02T01:25:49.310Z,14.50
2022-10-02T01:28:16.634Z,14.50
2022-10-02T01:30:45.716Z,14.50
2022-10-02T01:33:12.908Z,14.40
2022-10-02T01:35:39.851Z,14.50
2022-10-02T01:38:11.642Z,14.60
2022-10-02T01:40:39.946Z,14.60
2022-10-02T01:43:17.435Z,14.50
2022-10-02T01:46:05.949Z,14.50
2022-10-02T01:48:43.366Z,14.50
2022-10-02T01:51:13.036Z,14.50
2022-10-02T01:53:44.858Z,14.50
2022-10-02T01:56:39.323Z,14.50
2022-10-02T01:59:09.315Z,14.50
2022-10-02T02:02:05.356Z,14.50
2022-10-02T02:04:40.841Z,14.50
2022-10-02T02:07:35.477Z,14.50
2022-10-02T02:10:05.017Z,14.50
2022-10-02T02:12:46.503Z,14.50
2022-10-02T02:15:28.823Z,14.40
2022-10-02T02:17:57.215Z,14.50
2022-10-02T02:20:29.990Z,14.50
2022-10-02T02:22:59.944Z,14.50
2022-10-02T02:25:28.022Z,14.50
2022-10-02T02:27:57.290Z,14.50
2022-10-02T02:30:24.340Z,14.50
2022-10-02T02:33:04.578Z,14.40
2022-10-02T02:35:39.794Z,14.40
2022-10-02T02:38:09.426Z,14.40
2022-10-02T02:40:37.880Z,14.40
2022-10-02T02:43:10.095Z,14.40
2022-10-02T02:45:38.978Z,14.40
2022-10-02T02:48:26.898Z,14.40
2022-10-02T02:50:57.207Z,14.40
2022-10-02T02:53:30.039Z,14.50
2022-10-02T02:55:59.545Z,14.50
2022-10-02T02:59:03.241Z,14.40
2022-10-02T03:01:30.218Z,14.40
2022-10-02T03:03:57.057Z,14.40
2022-10-02T03:06:33.794Z,14.40
2022-10-02T03:09:01.248Z,14.50
2022-10-02T03:11:45.826Z,14.50
2022-10-02T03:14:27.763Z,14.50
2022-10-02T03:17:15.863Z,14.50
2022-10-02T03:19:53.293Z,14.50
2022-10-02T03:22:52.617Z,14.50
2022-10-02T03:25:31.856Z,14.50
2022-10-02T03:28:09.278Z,14.40
2022-10-02T03:30:36.373Z,14.50
2022-10-02T03:33:03.642Z,14.40
2022-10-02T03:35:30.493Z,14.50
2022-10-02T03:38:03.404Z,14.40
2022-10-02T03:40:30.318Z,14.50
2022-10-02T03:42:58.467Z,14.50
2022-10-02T03:45:49.514Z,14.40
2022-10-02T03:48:13.000Z,14.40
2022-10-02T03:50:39.845Z,14.40
2022-10-02T03:53:13.501Z,14.50
2022-10-02T03:55:42.294Z,14.40
2022-10-02T03:58:16.723Z,14.40
2022-10-02T04:00:50.003Z,14.40
2022-10-02T04:03:29.185Z,14.40
2022-10-02T04:06:09.495Z,14.40
2022-10-02T04:08:46.062Z,14.40
2022-10-02T04:11:27.328Z,14.40
2022-10-02T04:14:06.194Z,14.40
2022-10-02T04:16:40.485Z,14.40
2022-10-02T04:19:33.722Z,14.40
2022-10-02T04:22:07.943Z,14.40
2022-10-02T04:24:44.690Z,14.40
2022-10-02T04:27:43.750Z,14.40
2022-10-02T04:30:18.310Z,14.40
2022-10-02T04:32:45.285Z,14.40
2022-10-02T04:35:28.322Z,14.40
2022-10-02T04:38:30.662Z,14.40
2022-10-02T04:41:28.546Z,14.40
2022-10-02T04:44:23.247Z,14.40
2022-10-02T04:47:08.420Z,14.40
2022-10-02T04:50:18.747Z,14.40
2022-10-02T04:53:12.221Z,14.30
2022-10-02T04:55:56.911Z,14.40
2022-10-02T04:58:43.136Z,14.30
2022-10-02T05:01:12.843Z,14.40
2022-10-02T05:04:13.451Z,14.40
2022-10-02T05:07:07.677Z,14.30
2022-10-02T05:09:40.135Z,14.30
2022-10-02T05:12:51.774Z,14.40
2022-10-02T05:16:00.577Z,14.30
2022-10-02T05:19:05.144Z,14.30
2022-10-02T05:21:56.001Z,14.40
2022-10-02T05:24:46.076Z,14.40
2022-10-02T05:27:31.806Z,14.40
2022-10-02T05:30:05.245Z,14.40
2022-10-02T05:32:46.888Z,14.40
2022-10-02T05:35:34.560Z,14.40
2022-10-02T05:38:28.134Z,14.40
2022-10-02T05:41:02.230Z,14.40
2022-10-02T05:43:31.879Z,14.40
2022-10-02T05:46:27.117Z,14.40
2022-10-02T05:49:17.045Z,14.40
2022-10-02T05:51:59.302Z,14.30
2022-10-02T05:54:50.704Z,14.30
2022-10-02T05:57:38.377Z,14.30
2022-10-02T06:00:20.327Z,14.30
2022-10-02T06:02:56.789Z,14.30
2022-10-02T06:05:36.981Z,14.20
2022-10-02T06:08:04.385Z,14.20
2022-10-02T06:10:59.179Z,14.20
2022-10-02T06:13:43.649Z,14.20
2022-10-02T06:16:30.956Z,14.20
2022-10-02T06:19:12.888Z,14.20
2022-10-02T06:21:46.186Z,14.10
2022-10-02T06:24:38.186Z,14.20
2022-10-02T06:27:10.282Z,14.20
2022-10-02T06:29:41.472Z,14.20
2022-10-02T06:32:31.993Z,14.20
2022-10-02T06:34:58.842Z,14.20
2022-10-02T06:37:53.322Z,14.20
2022-10-02T06:40:36.949Z,14.20
2022-10-02T06:43:11.513Z,14.20
2022-10-02T06:45:46.247Z,14.20
2022-10-02T06:48:46.150Z,14.20
2022-10-02T06:51:21.833Z,14.20
2022-10-02T06:54:19.109Z,14.20
2022-10-02T06:56:54.641Z,14.20
2022-10-02T06:59:24.683Z,14.20
2022-10-02T07:01:59.850Z,14.20
2022-10-02T07:04:47.931Z,14.20
2022-10-02T07:07:39.810Z,14.20
2022-10-02T07:10:28.740Z,14.20
2022-10-02T07:13:23.398Z,14.20
2022-10-02T07:15:56.143Z,14.20
2022-10-02T07:18:42.700Z,14.20
2022-10-02T07:21:25.130Z,14.20
2022-10-02T07:23:52.083Z,14.20
2022-10-02T07:26:37.875Z,14.20
2022-10-02T07:29:17.061Z,14.20
2022-10-02T07:32:21.202Z,14.20
2022-10-02T07:35:13.926Z,14.20
2022-10-02T07:37:51.332Z,14.10
2022-10-02T07:40:28.897Z,14.10
2022-10-02T07:43:20.865Z,14.10
2022-10-02T07:45:56.357Z,14.10
2022-10-02T07:49:10.079Z,14.10
2022-10-02T07:51:50.169Z,14.10
2022-10-02T07:54:40.013Z,14.20
2022-10-02T07:57:21.703Z,14.20
2022-10-02T07:59:49.037Z,14.20
2022-10-02T08:02:28.585Z,14.20
2022-10-02T08:04:57.988Z,14.30
2022-10-02T08:07:24.836Z,14.30
2022-10-02T08:09:51.986Z,14.30
2022-10-02T08:12:34.019Z,14.30
2022-10-02T08:15:01.362Z,14.20
2022-10-02T08:17:49.903Z,14.20
2022-10-02T08:20:41.895Z,14.30
2022-10-02T08:23:25.695Z,14.30
2022-10-02T08:26:11.452Z,14.30
2022-10-02T08:28:49.495Z,14.30
2022-10-02T08:31:16.504Z,14.30
2022-10-02T08:33:43.530Z,14.40
2022-10-02T08:36:35.708Z,14.40
2022-10-02T08:39:42.793Z,14.30
2022-10-02T08:42:37.067Z,14.40
2022-10-02T08:45:19.004Z,14.40
2022-10-02T08:48:10.471Z,14.40
2022-10-02T08:51:05.159Z,14.40
2022-10-02T08:53:47.031Z,14.40
2022-10-02T08:56:29.433Z,14.50
2022-10-02T08:59:29.908Z,14.40
2022-10-02T09:02:27.479Z,14.40
2022-10-02T09:05:12.979Z,14.50
2022-10-02T09:07:51.298Z,14.50
2022-10-02T09:10:46.069Z,14.50
2022-10-02T09:13:43.516Z,14.50
2022-10-02T09:16:11.728Z,14.60
2022-10-02T09:19:00.080Z,14.60
2022-10-02T09:21:52.539Z,14.60
2022-10-02T09:24:31.263Z,14.60
2022-10-02T09:26:58.307Z,14.60
2022-10-02T09:29:55.782Z,14.60
2022-10-02T09:32:59.891Z,14.60
2022-10-02T09:36:04.121Z,14.60
2022-10-02T09:38:44.833Z,14.70
2022-10-02T09:41:50.143Z,14.80
2022-10-02T09:45:00.420Z,14.80
2022-10-02T09:47:40.794Z,14.80
2022-10-02T09:50:13.615Z,14.90
2022-10-02T09:53:06.623Z,14.90
2022-10-02T09:55:59.138Z,15.00
2022-10-02T09:58:43.825Z,15.00
2022-10-02T10:01:32.325Z,15.00
2022-10-02T10:04:09.211Z,15.00
2022-10-02T10:06:59.597Z,15.10
2022-10-02T10:09:51.435Z,15.20
2022-10-02T10:12:41.423Z,15.20
2022-10-02T10:15:36.555Z,15.20
2022-10-02T10:18:42.509Z,15.20
2022-10-02T10:21:38.396Z,15.30
2022-10-02T10:24:18.028Z,15.30
2022-10-02T10:27:06.268Z,15.30
2022-10-02T10:29:41.072Z,15.30
2022-10-02T10:32:14.184Z,15.40
2022-10-02T10:34:59.670Z,15.40
2022-10-02T10:38:14.744Z,15.40
2022-10-02T10:41:19.360Z,15.50
2022-10-02T10:44:04.755Z,15.60
2022-10-02T10:46:37.435Z,15.60
2022-10-02T10:49:22.225Z,15.60
2022-10-02T10:51:55.238Z,15.70
2022-10-02T10:54:40.509Z,15.70
2022-10-02T10:57:22.276Z,15.70
2022-10-02T11:00:20.435Z,15.80
2022-10-02T11:03:11.326Z,15.90
2022-10-02T11:05:50.365Z,15.80
2022-10-02T11:08:20.478Z,15.90
2022-10-02T11:11:11.806Z,15.90
2022-10-02T11:14:02.597Z,15.90
2022-10-02T11:16:54.005Z,15.90
2022-10-02T11:19:48.894Z,15.80
2022-10-02T11:22:43.615Z,15.80
2022-10-02T11:25:22.952Z,15.80
2022-10-02T11:28:29.529Z,15.80
2022-10-02T11:31:17.981Z,15.80
2022-10-02T11:33:49.012Z,15.80
2022-10-02T11:36:29.101Z,15.90
2022-10-02T11:38:56.132Z,16.00
2022-10-02T11:41:34.926Z,16.00
2022-10-02T11:44:11.373Z,16.10
2022-10-02T11:47:02.064Z,16.00
2022-10-02T11:49:34.976Z,15.90
2022-10-02T11:52:16.705Z,15.90
2022-10-02T11:55:14.902Z,15.90
2022-10-02T11:58:00.455Z,15.90
2022-10-02T12:00:37.578Z,16.00
2022-10-02T12:03:31.381Z,16.00
2022-10-02T12:05:58.246Z,16.10
2022-10-02T12:08:53.021Z,16.10
2022-10-02T12:11:48.203Z,16.20
2022-10-02T12:14:43.602Z,16.20
2022-10-02T12:17:29.275Z,16.20
2022-10-02T12:20:38.541Z,16.30
2022-10-02T12:23:52.068Z,16.30
2022-10-02T12:27:00.033Z,16.30
2022-10-02T12:29:48.399Z,16.30
2022-10-02T12:32:23.165Z,16.30
2022-10-02T12:35:01.610Z,16.30
2022-10-02T12:37:46.421Z,16.40
2022-10-02T12:40:23.238Z,16.40
2022-10-02T12:42:50.050Z,16.40
2022-10-02T12:45:45.594Z,16.50
2022-10-02T12:48:37.057Z,16.50
2022-10-02T12:51:09.785Z,16.60
2022-10-02T12:53:51.581Z,16.60
2022-10-02T12:56:55.837Z,16.70
2022-10-02T12:59:43.470Z,16.70
2022-10-02T13:03:00.465Z,16.70
2022-10-02T13:05:51.360Z,16.80
2022-10-02T13:08:31.436Z,16.80
2022-10-02T13:11:12.266Z,16.80
2022-10-02T13:13:51.089Z,16.90
2022-10-02T13:16:26.600Z,16.90
2022-10-02T13:19:02.434Z,16.90
2022-10-02T13:21:39.182Z,17.00
2022-10-02T13:24:06.441Z,17.00
2022-10-02T13:26:33.285Z,17.10
2022-10-02T13:29:42.886Z,17.20
2022-10-02T13:32:46.936Z,17.10
2022-10-02T13:35:25.681Z,17.00
2022-10-02T13:37:55.282Z,17.00
2022-10-02T13:40:32.290Z,17.10
2022-10-02T13:43:24.867Z,17.10
2022-10-02T13:46:10.495Z,17.20
2022-10-02T13:48:47.102Z,17.10
2022-10-02T13:51:31.963Z,17.20
2022-10-02T13:54:21.467Z,17.30
2022-10-02T13:57:03.315Z,17.30
2022-10-02T13:59:42.413Z,17.30
2022-10-02T14:02:22.542Z,17.40
2022-10-02T14:04:55.324Z,17.40
2022-10-02T14:07:46.273Z,17.50
2022-10-02T14:10:28.434Z,17.60
2022-10-02T14:13:14.946Z,17.60
2022-10-02T14:15:47.454Z,17.70
2022-10-02T14:18:47.964Z,17.70
2022-10-02T14:21:20.678Z,17.60
2022-10-02T14:24:21.357Z,17.60
2022-10-02T14:27:16.178Z,17.60
2022-10-02T14:29:48.745Z,17.60
2022-10-02T14:32:40.803Z,17.60
2022-10-02T14:35:25.557Z,17.60
2022-10-02T14:38:08.232Z,17.60
2022-10-02T14:40:45.661Z,17.60
2022-10-02T14:43:34.754Z,17.60
2022-10-02T14:46:07.515Z,17.70
2022-10-02T14:48:46.190Z,17.70
2022-10-02T14:51:38.310Z,17.70
2022-10-02T14:54:59.945Z,17.60
2022-10-02T14:57:36.444Z,17.60
2022-10-02T15:00:18.338Z,17.60
2022-10-02T15:02:58.325Z,17.50
2022-10-02T15:05:34.815Z,17.50
2022-10-02T15:08:04.716Z,17.50
2022-10-02T15:10:35.391Z,17.30
2022-10-02T15:13:10.075Z,17.30
2022-10-02T15:16:16.642Z,17.30
2022-10-02T15:18:47.679Z,17.20
2022-10-02T15:21:47.122Z,17.20
2022-10-02T15:24:27.735Z,17.20
2022-10-02T15:26:59.807Z,17.20
2022-10-02T15:29:48.287Z,17.20
2022-10-02T15:32:54.445Z,17.30
2022-10-02T15:35:21.267Z,17.30
2022-10-02T15:38:19.247Z,17.30
2022-10-02T15:41:16.720Z,17.40
2022-10-02T15:43:49.603Z,17.30
2022-10-02T15:46:32.110Z,17.30
2022-10-02T15:49:15.328Z,17.30
2022-10-02T15:51:50.817Z,17.30
2022-10-02T15:54:52.156Z,17.30
2022-10-02T15:57:44.866Z,17.30
2022-10-02T16:00:14.139Z,17.20
2022-10-02T16:03:07.982Z,17.20
2022-10-02T16:05:37.767Z,17.20
2022-10-02T16:08:10.387Z,17.20
2022-10-02T16:11:01.211Z,17.10
2022-10-02T16:13:34.387Z,17.10
2022-10-02T16:16:02.079Z,17.10
2022-10-02T16:18:53.509Z,17.10
2022-10-02T16:21:51.083Z,17.10
2022-10-02T16:24:41.064Z,17.10
2022-10-02T16:27:08.268Z,17.20
2022-10-02T16:30:01.494Z,17.20
2022-10-02T16:33:06.212Z,17.20
2022-10-02T16:36:03.282Z,17.20
2022-10-02T16:38:39.161Z,17.20
2022-10-02T16:41:27.895Z,17.20
2022-10-02T16:44:18.009Z,17.10
2022-10-02T16:46:51.524Z,17.10
2022-10-02T16:49:31.637Z,17.00
2022-10-02T16:52:30.383Z,17.00
2022-10-02T16:55:19.872Z,16.90
2022-10-02T16:58:15.764Z,16.90
2022-10-02T17:00:53.042Z,16.90
2022-10-02T17:03:35.744Z,16.90
2022-10-02T17:06:26.620Z,16.90
2022-10-02T17:09:14.364Z,16.80
2022-10-02T17:11:51.674Z,16.80
2022-10-02T17:14:20.160Z,16.70
2022-10-02T17:16:55.559Z,16.70
2022-10-02T17:19:43.401Z,16.70
2022-10-02T17:22:13.828Z,16.60
2022-10-02T17:25:11.426Z,16.50
2022-10-02T17:27:51.090Z,16.40
2022-10-02T17:30:27.251Z,16.40
2022-10-02T17:33:04.428Z,16.30
2022-10-02T17:36:03.929Z,16.30
2022-10-02T17:39:04.140Z,16.20
2022-10-02T17:42:12.447Z,16.10
2022-10-02T17:45:14.872Z,16.00
2022-10-02T17:48:07.456Z,15.80
2022-10-02T17:50:49.490Z,15.70
2022-10-02T17:53:56.699Z,15.70
2022-10-02T17:56:36.220Z,15.60
2022-10-02T17:59:34.352Z,15.50
2022-10-02T18:02:32.765Z,15.40
2022-10-02T18:05:18.516Z,15.40
2022-10-02T18:08:19.358Z,15.30
2022-10-02T18:11:09.827Z,15.20
2022-10-02T18:13:48.680Z,15.10
2022-10-02T18:16:34.474Z,15.00
2022-10-02T18:19:39.030Z,15.00
2022-10-02T18:22:27.023Z,14.90
2022-10-02T18:24:54.032Z,14.80
2022-10-02T18:27:27.519Z,14.70
2022-10-02T18:30:19.803Z,14.70
2022-10-02T18:33:24.150Z,14.70
2022-10-02T18:36:28.973Z,14.60
2022-10-02T18:39:28.282Z,14.50
2022-10-02T18:41:56.599Z,14.40
2022-10-02T18:44:38.558Z,14.40
2022-10-02T18:47:15.917Z,14.30
2022-10-02T18:49:48.772Z,14.30
2022-10-02T18:52:26.501Z,14.20
2022-10-02T18:55:04.835Z,14.20
2022-10-02T18:58:09.883Z,14.10
2022-10-02T19:01:07.833Z,14.00
2022-10-02T19:04:11.889Z,13.90
2022-10-02T19:07:17.440Z,13.90
2022-10-02T19:09:44.398Z,13.80
2022-10-02T19:12:16.276Z,13.80
2022-10-02T19:14:46.366Z,13.80
2022-10-02T19:17:14.250Z,13.70
2022-10-02T19:19:42.251Z,13.70
2022-10-02T19:22:10.497Z,13.70
2022-10-02T19:24:39.767Z,13.60
2022-10-02T19:27:08.472Z,13.60
2022-10-02T19:29:41.221Z,13.60
2022-10-02T19:32:27.344Z,13.50
2022-10-02T19:34:59.210Z,13.40
2022-10-02T19:37:27.113Z,13.40
2022-10-02T19:39:55.279Z,13.30
2022-10-02T19:42:25.588Z,13.30
2022-10-02T19:44:58.114Z,13.20
2022-10-02T19:47:29.767Z,13.20
2022-10-02T19:49:57.627Z,13.20
2022-10-02T19:52:39.803Z,13.10
2022-10-02T19:55:27.239Z,13.10
2022-10-02T19:57:57.772Z,13.10
2022-10-02T20:00:24.639Z,13.10
2022-10-02T20:02:54.251Z,13.00
2022-10-02T20:05:25.928Z,13.00
2022-10-02T20:07:56.496Z,13.00
2022-10-02T20:10:29.801Z,12.90
2022-10-02T20:12:58.733Z,12.80
2022-10-02T20:15:47.270Z,12.70
2022-10-02T20:18:14.535Z,12.70
2022-10-02T20:20:41.984Z,12.60
2022-10-02T20:23:13.683Z,12.60
2022-10-02T20:25:49.144Z,12.60
2022-10-02T20:28:28.080Z,12.50
2022-10-02T20:31:04.538Z,12.50
2022-10-02T20:33:43.617Z,12.50
2022-10-02T20:36:14.299Z,12.40
2022-10-02T20:38:55.934Z,12.40
2022-10-02T20:41:35.527Z,12.30
2022-10-02T20:44:03.134Z,12.30
2022-10-02T20:46:52.537Z,12.30
2022-10-02T20:49:40.294Z,12.20
2022-10-02T20:52:40.289Z,12.10
2022-10-02T20:55:31.055Z,12.10
2022-10-02T20:58:13.230Z,12.00
2022-10-02T21:00:45.683Z,12.00
2022-10-02T21:03:18.239Z,12.00
2022-10-02T21:05:50.988Z,11.90
2022-10-02T21:08:17.964Z,11.90
2022-10-02T21:10:53.698Z,11.90
2022-10-02T21:13:35.393Z,11.90
2022-10-02T21:16:10.783Z,11.80
2022-10-02T21:18:40.906Z,11.80
2022-10-02T21:21:07.839Z,11.80
2022-10-02T21:24:05.738Z,11.90
2022-10-02T21:26:59.186Z,11.80
2022-10-02T21:29:41.804Z,11.80
2022-10-02T21:32:20.334Z,11.80
2022-10-02T21:34:57.183Z,11.60
2022-10-02T21:37:35.818Z,11.60
2022-10-02T21:40:28.550Z,11.60
2022-10-02T21:43:06.706Z,11.60
2022-10-02T21:45:45.782Z,11.60
2022-10-02T21:48:51.361Z,11.50
2022-10-02T21:51:37.874Z,11.60
2022-10-02T21:54:40.497Z,11.60
2022-10-02T21:57:13.152Z,11.60
2022-10-02T22:00:07.991Z,11.60
2022-10-02T22:03:07.165Z,11.50
2022-10-02T22:06:01.851Z,11.50
2022-10-02T22:08:57.312Z,11.50
2022-10-02T22:11:27.130Z,11.50
2022-10-02T22:13:55.460Z,11.40
2022-10-02T22:17:01.576Z,11.30
2022-10-02T22:19:48.695Z,11.30
2022-10-02T22:22:15.598Z,11.20
2022-10-02T22:25:23.750Z,11.20
2022-10-02T22:27:55.756Z,11.10
2022-10-02T22:30:26.113Z,11.00
2022-10-02T22:33:10.585Z,11.00
2022-10-02T22:36:14.920Z,11.10
2022-10-02T22:38:49.307Z,11.10
2022-10-02T22:41:16.266Z,11.00
2022-10-02T22:43:44.814Z,10.90
2022-10-02T22:46:29.831Z,11.00
2022-10-02T22:49:02.454Z,11.00
2022-10-02T22:51:49.535Z,11.10
2022-10-02T22:54:18.402Z,11.10
2022-10-02T22:57:03.762Z,11.00
2022-10-02T22:59:37.919Z,11.00
2022-10-02T23:02:08.245Z,11.00
2022-10-02T23:04:44.386Z,10.80
2022-10-02T23:07:19.271Z,10.80
2022-10-02T23:09:57.750Z,10.70
2022-10-02T23:12:39.592Z,10.70
2022-10-02T23:15:28.541Z,10.60
2022-10-02T23:18:01.531Z,10.60
2022-10-02T23:20:36.934Z,10.60
2022-10-02T23:23:41.628Z,10.70
2022-10-02T23:26:12.122Z,10.60
2022-10-02T23:28:50.614Z,10.60
2022-10-02T23:31:31.291Z,10.50
2022-10-02T23:34:29.650Z,10.60
2022-10-02T23:36:58.713Z,10.60
2022-10-02T23:39:56.754Z,10.50
2022-10-02T23:42:28.537Z,10.50
2022-10-02T23:45:06.235Z,10.50
2022-10-02T23:47:54.730Z,10.50
2022-10-02T23:50:25.919Z,10.50
2022-10-02T23:53:11.579Z,10.30
2022-10-02T23:56:16.404Z,10.20
2022-10-02T23:58:50.746Z,10.20
